• Join FlightAware (Why Join?)
  • Login
  • US Flag 
Gobble Gobble! 
04:35AM EST


 

Airport Tracker/Info


-or-


 

Live Flight TrackerFlight Track Log ✈ CSH852 ✈ 01-Apr-2014 ✈ RCSS / TSA - ZSSS / SHA

Flight Track Log - Related Links

Times and Time Zones

All times are in EDT time to prevent confusion due to time zone crossing. See the CSH852 flight status page for this flight to view local times or setup timezone preferences in your user account.

Time Position Orientation Groundspeed Altitude Reporting Facility
EDT Latitude Longitude Course Direction KTS MPH feet Rate Location/Type
12:12AM 25.9345 121.5227 358° North  Level Estimated
12:13AM 26.0065 121.5203 358° North  Level Estimated
12:14AM 26.0786 121.5178 358° North  Level Estimated
12:15AM 26.1507 121.5154 358° North  Level Estimated
12:16AM 26.2228 121.5129 358° North  Level Estimated
12:17AM 26.2949 121.5105 358° North  Level Estimated
12:18AM 26.3670 121.5081 358° North  Level Estimated
12:19AM 26.4391 121.5056 358° North  Level Estimated
12:20AM 26.5112 121.5032 358° North  Level Estimated
12:21AM 26.5832 121.5007 358° North  Level Estimated
12:22AM 26.6553 121.4982 358° North  Level Estimated
12:23AM 26.7274 121.4958 358° North  Level Estimated
12:24AM 26.7995 121.4933 358° North  Level Estimated
12:25AM 26.8716 121.4908 358° North  Level Estimated
12:26AM 26.9437 121.4884 358° North  Level Estimated
12:27AM 27.0157 121.4859 358° North  Level Estimated
12:28AM 27.0878 121.4834 358° North  Level Estimated
12:29AM 27.1599 121.4809 358° North  Level Estimated
12:30AM 27.2320 121.4784 358° North  Level Estimated
12:31AM 27.3041 121.4760 358° North  Level Estimated
12:32AM 27.3762 121.4735 358° North  Level Estimated
12:33AM 27.4482 121.4710 358° North  Level Estimated
12:34AM 27.5203 121.4685 358° North  Level Estimated
12:35AM 27.5924 121.4660 358° North  Level Estimated
12:36AM 27.6645 121.4635 358° North  Level Estimated
12:37AM 27.7366 121.4610 358° North  Level Estimated
12:38AM 27.8087 121.4584 358° North  Level Estimated
12:39AM 27.8808 121.4559 358° North  Level Estimated
12:40AM 27.9528 121.4534 358° North  Level Estimated
12:41AM 28.0249 121.4509 358° North  Level Estimated
12:42AM 28.0970 121.4484 358° North  Level Estimated
12:43AM 28.1691 121.4458 358° North  Level Estimated
12:44AM 28.2412 121.4433 358° North  Level Estimated
12:45AM 28.3133 121.4408 358° North  Level Estimated
12:46AM 28.3853 121.4382 358° North  Level Estimated
12:47AM 28.4574 121.4357 358° North  Level Estimated
12:48AM 28.5295 121.4331 358° North  Level Estimated
12:49AM 28.6016 121.4306 358° North  Level Estimated
12:50AM 28.6737 121.4280 358° North  Level Estimated
12:51AM 28.7458 121.4255 358° North  Level Estimated
12:52AM 28.8178 121.4229 358° North  Level Estimated
12:53AM 28.8899 121.4204 358° North  Level Estimated
12:54AM 28.9620 121.4178 358° North  Level Estimated
12:55AM 29.0341 121.4152 358° North  Level Estimated
12:56AM 29.1062 121.4127 358° North  Level Estimated
12:57AM 29.1783 121.4101 358° North  Level Estimated
12:58AM 29.2503 121.4075 358° North  Level Estimated
12:59AM 29.3224 121.4049 358° North  Level Estimated
01:00AM 29.3945 121.4023 358° North  Level Estimated
01:01AM 29.4666 121.3997 358° North  Level Estimated
01:02AM 29.5387 121.3971 358° North  Level Estimated
01:03AM 29.6108 121.3945 358° North  Level Estimated
01:04AM 29.6828 121.3919 358° North  Level Estimated
01:05AM 29.7549 121.3893 358° North  Level Estimated
01:06AM 29.8270 121.3867 358° North  Level Estimated
01:07AM 29.8991 121.3841 358° North  Level Estimated
01:08AM 29.9712 121.3815 358° North  Level Estimated
01:09AM 30.0432 121.3789 358° North  Level Estimated
01:10AM 30.1153 121.3762 358° North  Level Estimated
01:11AM 30.1874 121.3736 358° North  Level Estimated
01:12AM 30.2595 121.3710 358° North  Level Estimated
01:13AM 30.3316 121.3683 358° North  Level Estimated
01:14AM 30.4037 121.3657 358° North  Level Estimated
01:15AM 30.4757 121.3630 358° North  Level Estimated
01:16AM 30.5478 121.3604 358° North  Level Estimated
01:17AM 30.6199 121.3577 358° North  Level Estimated
01:18AM 30.6920 121.3551 358° North  Level Estimated
01:19AM 30.7641 121.3524 358° North  Level Estimated
01:20AM 30.8361 121.3497 358° North  Level Estimated
01:21AM 30.9082 121.3471 358° North  Level Estimated
01:22AM 30.9803 121.3444 358° North  Level Estimated
01:23AM 31.0524 121.3417 358° North  Level Estimated
01:24AM 31.1245 121.3391 358° North  Level Estimated
01:25AM 31.1966 121.3364 358° North  Level Estimated
01:26AM 31.1979 121.3363 358° North  Level Estimated